createdAt,value
2023-01-13T00:00:29.878Z,46.38
2023-01-13T00:02:56.288Z,46.25
2023-01-13T04:08:59.657Z,47.77
2023-01-13T04:11:26.050Z,47.68
2023-01-13T04:13:52.453Z,47.95
2023-01-13T04:16:18.889Z,47.81
2023-01-13T04:18:45.284Z,47.82
2023-01-13T04:21:11.678Z,47.61
2023-01-13T04:23:38.072Z,47.88
2023-01-13T04:26:04.461Z,47.82
2023-01-13T04:28:30.842Z,47.66
2023-01-13T04:30:57.269Z,47.87
2023-01-13T04:33:23.674Z,47.70
2023-01-13T04:35:50.082Z,48.05
2023-01-13T04:38:16.471Z,47.91
2023-01-13T04:40:42.856Z,48.15
2023-01-13T04:43:09.255Z,48.04
2023-01-13T04:45:35.636Z,48.04
2023-01-13T04:48:02.033Z,48.16
2023-01-13T04:50:28.408Z,47.75
2023-01-13T04:52:54.803Z,47.82
2023-01-13T04:55:21.183Z,47.84
2023-01-13T04:57:47.551Z,47.76
2023-01-13T05:00:13.930Z,48.04
2023-01-13T05:02:40.296Z,47.86
2023-01-13T05:05:06.713Z,47.97
2023-01-13T05:07:33.130Z,47.58
2023-01-13T05:09:59.534Z,47.77
2023-01-13T05:12:25.907Z,47.92
2023-01-13T05:14:52.293Z,47.69
2023-01-13T05:17:18.681Z,47.59
2023-01-13T05:19:45.058Z,47.76
2023-01-13T05:22:11.441Z,47.60
2023-01-13T05:24:37.816Z,47.92
2023-01-13T05:27:04.233Z,47.63
2023-01-13T05:29:30.606Z,47.66
2023-01-13T05:31:56.981Z,47.86
2023-01-13T05:34:23.374Z,48.05
2023-01-13T05:36:49.743Z,47.99
2023-01-13T05:39:16.132Z,48.00
2023-01-13T05:41:42.511Z,48.05
2023-01-13T05:44:08.891Z,48.35
2023-01-13T05:46:35.292Z,48.10
2023-01-13T05:49:01.696Z,48.24
2023-01-13T05:51:28.196Z,48.02
2023-01-13T05:53:54.622Z,48.08
2023-01-13T05:56:21.000Z,47.78
2023-01-13T05:58:47.389Z,47.82
2023-01-13T06:01:13.816Z,47.44
2023-01-13T06:03:40.215Z,47.41
2023-01-13T06:06:06.607Z,47.48
2023-01-13T06:08:32.984Z,47.29
2023-01-13T06:10:59.374Z,47.37
2023-01-13T06:13:25.771Z,47.56
2023-01-13T06:15:52.240Z,47.43
2023-01-13T06:18:18.655Z,47.33
2023-01-13T06:20:45.035Z,47.30
2023-01-13T06:23:11.409Z,47.37
2023-01-13T06:25:37.800Z,47.26
2023-01-13T06:28:04.206Z,47.37
2023-01-13T06:30:30.582Z,47.42
2023-01-13T06:32:56.995Z,47.44
2023-01-13T06:35:23.376Z,47.29
2023-01-13T06:37:49.762Z,47.33
2023-01-13T06:40:16.192Z,47.35
2023-01-13T06:42:42.575Z,47.15
2023-01-13T06:45:08.980Z,47.27
2023-01-13T06:47:35.356Z,47.20
2023-01-13T06:50:01.777Z,47.24
2023-01-13T06:52:28.163Z,47.11
2023-01-13T06:54:54.538Z,47.36
2023-01-13T06:57:20.939Z,47.19
2023-01-13T06:59:47.337Z,47.06
2023-01-13T07:02:13.831Z,47.00
2023-01-13T07:04:40.281Z,47.16
2023-01-13T07:07:06.659Z,47.11
2023-01-13T07:09:33.050Z,47.33
2023-01-13T07:11:59.426Z,47.16
2023-01-13T07:14:25.805Z,47.37
2023-01-13T07:16:52.228Z,47.10
2023-01-13T07:19:19.662Z,47.16
2023-01-13T07:21:47.142Z,47.10
2023-01-13T07:24:13.538Z,47.16
2023-01-13T07:26:39.946Z,47.10
2023-01-13T07:29:06.346Z,47.13
2023-01-13T07:31:32.769Z,47.08
2023-01-13T07:33:59.931Z,47.05
2023-01-13T07:36:26.325Z,47.22
2023-01-13T07:38:54.746Z,47.37
2023-01-13T07:41:21.318Z,47.11
2023-01-13T07:43:47.720Z,46.97
2023-01-13T07:46:14.175Z,46.93
2023-01-13T07:48:40.585Z,47.03
2023-01-13T07:51:06.961Z,47.12
2023-01-13T07:53:33.364Z,46.91
2023-01-13T07:55:59.786Z,46.94
2023-01-13T07:58:26.181Z,46.82
2023-01-13T08:00:52.662Z,46.70
2023-01-13T08:03:19.134Z,47.01
2023-01-13T08:05:45.513Z,46.77
2023-01-13T08:08:11.903Z,46.88
2023-01-13T08:10:38.296Z,46.75
2023-01-13T08:13:04.699Z,46.87
2023-01-13T08:15:31.079Z,46.80
2023-01-13T08:17:57.467Z,46.50
2023-01-13T08:20:23.838Z,46.61
2023-01-13T08:22:50.258Z,46.58
2023-01-13T08:25:16.644Z,46.54
2023-01-13T08:27:43.031Z,46.63
2023-01-13T08:30:09.450Z,46.70
2023-01-13T08:32:35.954Z,46.62
2023-01-13T08:35:02.372Z,46.47
2023-01-13T08:37:28.789Z,46.81
2023-01-13T08:39:55.164Z,46.70
2023-01-13T08:42:21.638Z,46.80
2023-01-13T08:44:48.064Z,46.71
2023-01-13T08:47:14.435Z,46.80
2023-01-13T08:49:40.823Z,46.52
2023-01-13T08:52:07.207Z,46.83
2023-01-13T08:54:33.601Z,46.93
2023-01-13T08:57:00.089Z,46.92
2023-01-13T08:59:26.509Z,47.08
2023-01-13T09:01:53.043Z,46.95
2023-01-13T09:04:19.647Z,46.84
2023-01-13T09:06:46.171Z,46.91
2023-01-13T09:09:12.665Z,46.88
2023-01-13T09:11:39.081Z,46.69
2023-01-13T09:14:05.473Z,47.02
2023-01-13T09:16:31.881Z,46.79
2023-01-13T09:18:58.282Z,47.16
2023-01-13T09:21:24.670Z,47.23
2023-01-13T09:23:51.096Z,47.32
2023-01-13T09:26:17.499Z,47.33
2023-01-13T09:28:43.887Z,47.02
2023-01-13T09:31:10.317Z,46.77
2023-01-13T09:33:36.756Z,46.75
2023-01-13T09:36:03.139Z,46.77
2023-01-13T09:38:29.528Z,46.69
2023-01-13T09:40:55.944Z,46.60
2023-01-13T09:43:22.330Z,46.59
2023-01-13T09:45:48.710Z,46.67
2023-01-13T09:48:15.115Z,46.67
2023-01-13T09:50:41.495Z,46.30
2023-01-13T09:53:07.889Z,46.54
2023-01-13T09:55:34.277Z,46.52
2023-01-13T09:58:00.641Z,46.31
2023-01-13T10:00:27.035Z,46.73
2023-01-13T10:02:53.410Z,46.50
2023-01-13T10:05:19.814Z,46.66
2023-01-13T10:07:46.307Z,46.35
2023-01-13T10:10:12.873Z,46.15
2023-01-13T10:12:39.464Z,46.47
2023-01-13T10:15:05.865Z,46.52
2023-01-13T10:17:32.242Z,46.62
2023-01-13T10:19:58.625Z,46.77
2023-01-13T10:22:25.029Z,46.42
2023-01-13T10:24:51.528Z,46.36
2023-01-13T10:27:17.949Z,46.37
2023-01-13T10:29:44.344Z,46.45
2023-01-13T10:32:10.720Z,46.20
2023-01-13T10:34:37.104Z,46.20
2023-01-13T10:37:03.505Z,46.43
2023-01-13T10:39:29.888Z,46.17
2023-01-13T10:41:56.272Z,46.15
2023-01-13T10:44:22.690Z,46.22
2023-01-13T10:46:49.091Z,46.45
2023-01-13T10:49:15.471Z,46.14
2023-01-13T10:51:41.863Z,46.44
2023-01-13T10:54:08.226Z,46.27
2023-01-13T10:56:34.614Z,46.20
2023-01-13T10:59:01.018Z,46.21
2023-01-13T11:01:27.521Z,46.23
2023-01-13T11:03:53.975Z,45.97
2023-01-13T11:06:20.393Z,45.76
2023-01-13T11:08:46.820Z,45.70
2023-01-13T11:11:13.194Z,45.43
2023-01-13T11:13:39.590Z,45.51
2023-01-13T11:16:06.105Z,45.82
2023-01-13T11:18:32.475Z,45.65
2023-01-13T11:20:58.849Z,45.90
2023-01-13T11:23:25.234Z,45.95
2023-01-13T11:25:51.640Z,46.02
2023-01-13T11:28:18.026Z,45.98
2023-01-13T11:30:44.417Z,46.08
2023-01-13T11:33:10.828Z,46.05
2023-01-13T11:35:37.231Z,45.77
2023-01-13T11:38:03.650Z,45.89
2023-01-13T11:40:30.058Z,45.93
2023-01-13T11:42:56.467Z,45.97
2023-01-13T11:45:22.854Z,45.96
2023-01-13T11:47:49.263Z,45.94
2023-01-13T11:50:15.696Z,46.29
2023-01-13T11:52:42.134Z,46.18
2023-01-13T11:55:08.530Z,46.26
2023-01-13T11:57:34.917Z,45.84
2023-01-13T12:00:01.420Z,46.09
2023-01-13T12:02:27.896Z,46.27
2023-01-13T12:04:54.311Z,45.97
2023-01-13T12:07:23.038Z,46.10
2023-01-13T12:09:49.721Z,46.26
2023-01-13T12:12:16.136Z,46.24
2023-01-13T12:14:42.524Z,46.30
2023-01-13T12:17:08.948Z,46.08
2023-01-13T12:19:35.342Z,46.26
2023-01-13T12:22:01.740Z,46.30
2023-01-13T12:24:28.144Z,46.63
2023-01-13T12:26:54.539Z,46.10
2023-01-13T12:29:20.962Z,46.40
2023-01-13T12:31:47.357Z,46.06
2023-01-13T12:34:13.735Z,45.99
2023-01-13T12:36:40.135Z,46.39
2023-01-13T12:39:06.529Z,46.07
2023-01-13T12:41:32.934Z,46.09
2023-01-13T12:43:59.334Z,46.10
2023-01-13T12:46:25.725Z,46.20
2023-01-13T12:48:52.138Z,46.23
2023-01-13T12:51:18.597Z,46.21
2023-01-13T12:53:45.011Z,46.40
2023-01-13T12:56:11.433Z,46.17
2023-01-13T12:58:37.827Z,45.85
2023-01-13T13:01:04.324Z,45.90
2023-01-13T13:03:30.770Z,46.21
2023-01-13T13:05:57.171Z,46.09
2023-01-13T13:08:23.574Z,45.98
2023-01-13T13:10:49.976Z,45.79
2023-01-13T13:13:16.414Z,46.21
2023-01-13T13:15:42.858Z,46.19
2023-01-13T13:18:09.258Z,46.02
2023-01-13T13:20:35.652Z,45.93
2023-01-13T13:23:02.045Z,45.79
2023-01-13T13:25:28.456Z,45.74
2023-01-13T13:27:54.852Z,45.73
2023-01-13T13:30:21.246Z,45.98
2023-01-13T13:32:47.655Z,45.88
2023-01-13T13:35:14.064Z,45.78
2023-01-13T13:37:40.462Z,46.15
2023-01-13T13:40:06.882Z,45.97
2023-01-13T13:42:33.473Z,45.98
2023-01-13T13:44:59.902Z,46.11
2023-01-13T13:47:26.328Z,45.89
2023-01-13T13:49:52.723Z,45.89
2023-01-13T13:52:19.188Z,46.18
2023-01-13T13:54:45.707Z,46.08
2023-01-13T13:57:12.107Z,45.97
2023-01-13T13:59:38.511Z,45.96
2023-01-13T14:02:05.048Z,46.05
2023-01-13T14:04:31.580Z,46.29
2023-01-13T14:06:57.997Z,45.87
2023-01-13T14:09:24.376Z,45.84
2023-01-13T14:11:50.793Z,46.10
2023-01-13T14:14:17.284Z,45.95
2023-01-13T14:16:43.685Z,46.01
2023-01-13T14:19:10.093Z,46.09
2023-01-13T14:21:36.493Z,45.75
2023-01-13T14:24:02.867Z,46.01
2023-01-13T14:26:29.257Z,46.03
2023-01-13T14:28:55.644Z,45.92
2023-01-13T14:31:22.092Z,45.87
2023-01-13T14:33:48.505Z,45.67
2023-01-13T14:36:14.894Z,45.79
2023-01-13T14:38:41.289Z,45.75
2023-01-13T14:41:07.698Z,45.77
2023-01-13T14:43:34.089Z,45.88
2023-01-13T14:46:00.512Z,45.74
2023-01-13T14:48:26.938Z,45.91
2023-01-13T14:50:53.327Z,45.66
2023-01-13T14:53:19.723Z,45.62
2023-01-13T14:55:46.137Z,45.76
2023-01-13T14:58:12.545Z,45.78
2023-01-13T15:00:38.945Z,45.42
2023-01-13T15:03:05.379Z,45.45
2023-01-13T15:05:31.803Z,44.26
2023-01-13T15:07:58.180Z,44.44
2023-01-13T15:10:24.601Z,44.49
2023-01-13T15:12:50.986Z,44.79
2023-01-13T15:15:17.388Z,44.76
2023-01-13T15:17:43.869Z,44.88
2023-01-13T15:20:10.251Z,44.96
2023-01-13T15:22:36.634Z,44.85
2023-01-13T15:25:03.034Z,44.73
2023-01-13T15:27:29.450Z,45.00
2023-01-13T15:29:55.852Z,44.89
2023-01-13T15:32:22.244Z,45.17
2023-01-13T15:34:48.649Z,44.86
2023-01-13T15:37:15.049Z,44.63
2023-01-13T15:39:41.441Z,44.98
2023-01-13T15:42:07.873Z,44.94
2023-01-13T15:44:34.257Z,44.82
2023-01-13T15:47:00.672Z,44.72
2023-01-13T15:49:27.072Z,44.96
2023-01-13T15:51:53.466Z,45.00
2023-01-13T15:54:19.850Z,44.96
2023-01-13T15:56:46.258Z,44.81
2023-01-13T15:59:12.646Z,44.69
2023-01-13T16:01:39.052Z,44.63
2023-01-13T16:04:05.508Z,44.59
2023-01-13T16:06:31.906Z,44.75
2023-01-13T16:08:58.302Z,44.86
2023-01-13T16:11:24.689Z,44.91
2023-01-13T16:13:51.077Z,44.85
2023-01-13T16:16:17.506Z,45.17
2023-01-13T16:18:43.911Z,45.01
2023-01-13T16:21:10.347Z,45.27
2023-01-13T16:23:36.744Z,45.19
2023-01-13T16:26:03.222Z,45.33
2023-01-13T16:28:29.624Z,45.51
2023-01-13T16:30:56.013Z,45.37
2023-01-13T16:33:22.421Z,45.41
2023-01-13T16:36:10.484Z,45.28
2023-01-13T16:38:35.183Z,45.33
2023-01-13T16:41:01.626Z,45.30
2023-01-13T16:43:28.027Z,45.31
2023-01-13T16:45:54.505Z,45.34
2023-01-13T16:48:20.937Z,45.34
2023-01-13T16:50:47.313Z,45.46
2023-01-13T16:53:13.693Z,45.70
2023-01-13T16:55:40.078Z,45.64
2023-01-13T16:58:06.474Z,45.62
2023-01-13T17:00:32.854Z,45.54
2023-01-13T17:02:59.250Z,45.40
2023-01-13T17:05:25.694Z,45.38
2023-01-13T17:07:52.070Z,45.36
2023-01-13T17:10:18.483Z,45.25
2023-01-13T17:12:44.871Z,45.31
2023-01-13T17:15:11.277Z,45.26
2023-01-13T17:17:37.649Z,45.40
2023-01-13T17:20:04.041Z,45.14
2023-01-13T17:22:30.448Z,45.26
2023-01-13T17:24:56.833Z,44.91
2023-01-13T17:27:23.323Z,45.11
2023-01-13T17:29:49.722Z,45.22
2023-01-13T17:32:16.097Z,45.29
2023-01-13T17:34:42.616Z,45.02
2023-01-13T17:37:08.989Z,45.23
2023-01-13T17:39:35.354Z,45.28
2023-01-13T17:42:01.740Z,44.87
2023-01-13T17:44:28.128Z,45.18
2023-01-13T17:46:54.507Z,45.46
2023-01-13T17:49:20.913Z,45.57
2023-01-13T17:51:47.315Z,45.49
2023-01-13T17:54:13.679Z,45.91
2023-01-13T17:56:40.079Z,46.34
2023-01-13T17:59:06.474Z,45.74
2023-01-13T18:01:32.940Z,45.99
2023-01-13T18:03:59.425Z,46.38
2023-01-13T18:06:25.808Z,45.85
2023-01-13T18:08:52.197Z,46.05
2023-01-13T18:11:18.604Z,46.01
2023-01-13T18:13:44.988Z,45.95
2023-01-13T18:16:11.401Z,45.94
2023-01-13T18:18:37.795Z,46.11
2023-01-13T18:21:04.388Z,46.05
2023-01-13T18:23:30.824Z,46.21
2023-01-13T18:25:57.204Z,46.44
2023-01-13T18:28:23.609Z,46.22
2023-01-13T18:30:50.043Z,45.95
2023-01-13T18:33:16.448Z,45.96
2023-01-13T18:35:42.932Z,46.05
2023-01-13T18:38:09.315Z,46.23
2023-01-13T18:40:35.700Z,46.36
2023-01-13T18:43:02.174Z,46.48
2023-01-13T18:45:28.605Z,46.50
2023-01-13T18:47:55.014Z,46.55
2023-01-13T18:50:21.412Z,46.16
2023-01-13T18:52:47.790Z,46.21
2023-01-13T18:55:14.184Z,46.03
2023-01-13T18:57:40.573Z,45.84
2023-01-13T19:00:06.951Z,45.90
2023-01-13T19:02:33.402Z,45.88
2023-01-13T19:04:59.778Z,45.95
2023-01-13T19:07:26.205Z,45.96
2023-01-13T19:09:52.591Z,46.13
2023-01-13T19:12:18.997Z,45.93
2023-01-13T19:14:45.421Z,46.00
2023-01-13T19:17:11.814Z,45.89
2023-01-13T19:19:38.213Z,45.95
2023-01-13T19:22:04.603Z,46.04
2023-01-13T19:24:31.021Z,46.07
2023-01-13T19:26:57.424Z,46.25
2023-01-13T19:29:23.831Z,46.14
2023-01-13T19:31:50.229Z,46.02
2023-01-13T19:34:16.622Z,45.99
2023-01-13T19:36:43.067Z,46.09
2023-01-13T19:39:09.568Z,46.13
2023-01-13T19:41:35.991Z,46.02
2023-01-13T19:44:02.428Z,46.24
2023-01-13T19:46:28.849Z,45.97
2023-01-13T19:48:55.293Z,45.62
2023-01-13T19:51:21.673Z,45.80
2023-01-13T19:53:48.075Z,45.88
2023-01-13T19:56:14.480Z,45.98
2023-01-13T19:58:40.885Z,46.00
2023-01-13T20:01:07.314Z,46.15
2023-01-13T20:03:33.714Z,45.95
2023-01-13T20:06:00.122Z,46.06
2023-01-13T20:08:26.502Z,46.14
2023-01-13T20:10:52.896Z,46.39
2023-01-13T20:13:19.282Z,46.15
2023-01-13T20:15:45.683Z,46.28
2023-01-13T20:18:12.126Z,46.51
2023-01-13T20:20:38.538Z,46.32
2023-01-13T20:23:04.932Z,46.38
2023-01-13T20:25:31.474Z,46.25
2023-01-13T20:27:57.926Z,46.52
2023-01-13T20:30:24.335Z,46.14
2023-01-13T20:32:50.729Z,46.31
2023-01-13T20:35:17.166Z,46.52
2023-01-13T20:37:43.575Z,46.96
2023-01-13T20:40:09.968Z,46.96
2023-01-13T20:42:36.397Z,47.07
2023-01-13T20:45:02.775Z,46.98
2023-01-13T20:47:29.186Z,47.01
2023-01-13T20:49:55.821Z,46.98
2023-01-13T20:52:22.207Z,47.20
2023-01-13T20:54:48.583Z,47.20
2023-01-13T20:57:14.968Z,47.27
2023-01-13T20:59:41.367Z,47.36
2023-01-13T21:02:07.872Z,47.39
2023-01-13T21:04:34.282Z,47.21
2023-01-13T21:07:00.678Z,46.98
2023-01-13T21:09:27.073Z,47.10
2023-01-13T21:11:53.458Z,47.20
2023-01-13T21:14:19.844Z,47.22
2023-01-13T21:16:46.264Z,47.32
2023-01-13T21:19:12.656Z,47.48
2023-01-13T21:21:39.102Z,47.54
2023-01-13T21:24:05.503Z,47.36
2023-01-13T21:26:31.886Z,47.28
2023-01-13T21:28:58.297Z,47.45
2023-01-13T21:31:26.825Z,47.49
2023-01-13T21:33:53.365Z,47.56
2023-01-13T21:36:19.764Z,47.47
2023-01-13T21:38:46.135Z,47.39
2023-01-13T21:41:12.528Z,47.47
2023-01-13T21:43:38.928Z,47.59
2023-01-13T21:46:05.699Z,47.52
2023-01-13T21:48:32.155Z,47.46
2023-01-13T21:50:58.540Z,47.25
2023-01-13T21:53:24.962Z,47.27
2023-01-13T21:55:51.387Z,47.20
2023-01-13T21:58:17.781Z,46.82
2023-01-13T22:00:44.203Z,47.00
2023-01-13T22:03:10.618Z,47.29
2023-01-13T22:05:36.986Z,46.99
2023-01-13T22:08:03.394Z,47.05
2023-01-13T22:10:29.826Z,47.04
2023-01-13T22:12:56.210Z,46.96
2023-01-13T22:15:22.601Z,46.86
2023-01-13T22:17:49.007Z,46.88
2023-01-13T22:20:15.410Z,47.00
2023-01-13T22:22:41.800Z,46.84
2023-01-13T22:25:08.186Z,46.94
2023-01-13T22:27:34.564Z,46.97
2023-01-13T22:30:00.939Z,46.77
2023-01-13T22:32:27.337Z,46.81
2023-01-13T22:34:53.722Z,46.93
2023-01-13T22:37:20.125Z,46.98
2023-01-13T22:39:46.520Z,47.14
2023-01-13T22:42:12.928Z,47.09
2023-01-13T22:44:39.331Z,47.34
2023-01-13T22:47:05.706Z,47.15
2023-01-13T22:49:32.095Z,47.30
2023-01-13T22:51:58.482Z,47.08
2023-01-13T22:54:24.873Z,47.20
2023-01-13T22:56:51.272Z,47.06
2023-01-13T22:59:17.693Z,47.00
2023-01-13T23:01:44.073Z,47.13
2023-01-13T23:04:10.543Z,47.19
2023-01-13T23:06:36.958Z,47.01
2023-01-13T23:09:03.347Z,47.01
2023-01-13T23:11:29.738Z,46.70
2023-01-13T23:13:56.134Z,46.81
2023-01-13T23:16:22.634Z,46.47
2023-01-13T23:18:49.044Z,46.56
2023-01-13T23:21:15.439Z,46.35
2023-01-13T23:23:41.836Z,46.39
2023-01-13T23:26:08.225Z,46.32
2023-01-13T23:28:34.619Z,46.39
2023-01-13T23:31:01.246Z,46.16
2023-01-13T23:33:27.687Z,46.16
2023-01-13T23:35:54.072Z,46.20
2023-01-13T23:38:20.462Z,46.10
2023-01-13T23:40:46.863Z,46.23
2023-01-13T23:43:13.265Z,46.15
2023-01-13T23:45:39.656Z,45.99
2023-01-13T23:48:06.037Z,46.11
2023-01-13T23:50:32.429Z,46.11
2023-01-13T23:52:58.837Z,46.23
2023-01-13T23:55:25.225Z,46.07
2023-01-13T23:57:51.630Z,46.06
